Airfield :
LOGIN :

Register | Disclaimer

   EN    FR    IT 

 










Legend :    VFR   Marginal VFR   IFR   Intensive IFR   Very Intensive IFR
Visi :
Ceiling :
>= 8 km
>= 3000ft
5 to 8 km
1000 to 3000 ft
1500m to 5 km
500 to 1000 ft
800 to 1500m
200 to 500 ft
< 800m
< 200 ft
Symbols :   Thunderstorms  Fog  Heavy snow  Heavy precipitations  Wind > 20 kt
SIGMETs :     Misc.  Thunderstorms  Icing  Turbulence  Mountain Waves  Volcanic Ashes






- Airport Elevation : 209 ft
- IATA code : CLY


LFKC - Calvi

CURRENT METAR :
  • 070930Z AUTO 35015KT 320V020 CAVOK 31/18 Q1016 TEMPO 01015G25KT

EXPIRED METARs :
  • 070900Z AUTO 36015KT 330V060 CAVOK 31/19 Q1016 NOSIG
  • 070830Z AUTO 01016KT CAVOK 31/18 Q1016 NOSIG
  • 070800Z AUTO 02015KT 350V050 CAVOK 31/15 Q1016 NOSIG
  • 070730Z AUTO 03012KT 340V060 CAVOK 30/15 Q1016 NOSIG
  • 070700Z AUTO 02011KT 350V050 CAVOK 30/14 Q1016 NOSIG
  • 070630Z AUTO 02008KT CAVOK 29/15 Q1017 NOSIG

TAF TAF LFKC
Valid from the 07 at 09:00 until the 08 at 09:00 UTC


070800Z 0709/0809 01015KT CAVOK TX32/0712Z TN20/0800Z
TEMPO 0711/0714 01015G25KT
BECMG 0718/0720 18003KT
BECMG 0808/0809 33010KT
ATIS : +33 4 95 65 82 49



MET'MAP, your aeronautical weather chart ! - Copyright ORBIFLY December 2007 - Disclaimer

ORBIFLY MET'MAP TEAM :

Programming & Development : Alexandra Zaïnal
Concept & original design : Baudouin d'Aumeries
Assistance for programming : Marc-Olivier Méhu
Technical & hardware support : Manuel Goepfert

Contact : metmap@orbifly.com




SOURCES & CREDITS :

   NOAA